createdAt,value
2018-12-01T00:00:35.396Z,95583.00
2018-12-01T00:03:04.526Z,95582.95
2018-12-01T00:05:33.715Z,95582.95
2018-12-01T00:08:02.872Z,95583.70
2018-12-01T00:10:32.020Z,95577.86
2018-12-01T00:13:01.172Z,95583.54
2018-12-01T00:15:30.960Z,95579.26
2018-12-01T00:18:00.199Z,95585.14
2018-12-01T00:20:32.644Z,95582.30
2018-12-01T00:23:01.798Z,95583.39
2018-12-01T00:25:30.979Z,95581.02
2018-12-01T00:28:00.183Z,95580.08
2018-12-01T00:30:29.400Z,95581.17
2018-12-01T00:32:58.567Z,95583.00
2018-12-01T00:35:27.775Z,95581.91
2018-12-01T00:37:57.079Z,95582.95
2018-12-01T00:40:26.283Z,95585.38
2018-12-01T00:42:55.442Z,95593.25
2018-12-01T00:45:24.880Z,95588.37
2018-12-01T00:47:54.582Z,95593.68
2018-12-01T00:50:24.748Z,95593.68
2018-12-01T00:52:54.611Z,95604.95
2018-12-01T00:55:23.939Z,95609.23
2018-12-01T00:57:53.106Z,95606.27
2018-12-01T01:00:27.933Z,95603.70
2018-12-01T01:02:58.832Z,95603.85
2018-12-01T01:05:29.420Z,95610.69
2018-12-01T01:07:59.823Z,95620.70
2018-12-01T01:10:30.770Z,95611.30
2018-12-01T01:12:59.988Z,95622.69
2018-12-01T01:15:29.155Z,95621.67
2018-12-01T01:17:58.374Z,95624.25
2018-12-01T01:20:27.583Z,95632.05
2018-12-01T01:22:56.755Z,95631.30
2018-12-01T01:25:25.964Z,95621.95
2018-12-01T01:27:55.127Z,95630.44
2018-12-01T01:30:24.838Z,95636.41
2018-12-01T01:33:58.395Z,95631.61
2018-12-01T01:36:27.604Z,95641.56
2018-12-01T01:38:56.864Z,95642.80
2018-12-01T01:41:26.044Z,95640.74
2018-12-01T01:43:55.259Z,95643.55
2018-12-01T01:46:24.444Z,95643.03
2018-12-01T01:48:53.590Z,95648.62
2018-12-01T01:51:22.744Z,95645.02
2018-12-01T01:53:51.924Z,95643.39
2018-12-01T01:56:21.165Z,95647.28
2018-12-01T01:58:50.339Z,95636.61
2018-12-01T02:01:19.548Z,95638.44
2018-12-01T02:03:48.718Z,95649.59
2018-12-01T02:06:17.852Z,95637.07
2018-12-01T02:08:47.032Z,95643.97
2018-12-01T02:11:16.195Z,95646.05
2018-12-01T02:13:45.361Z,95640.23
2018-12-01T02:16:14.508Z,95641.98
2018-12-01T02:18:43.708Z,95638.52
2018-12-01T02:21:13.000Z,95639.41
2018-12-01T02:23:42.149Z,95636.17
2018-12-01T02:26:11.307Z,95641.84
2018-12-01T02:28:40.523Z,95638.52
2018-12-01T02:31:09.792Z,95633.37
2018-12-01T02:33:39.017Z,95634.77
2018-12-01T02:36:08.223Z,95640.31
2018-12-01T02:38:37.413Z,95634.77
2018-12-01T02:41:06.623Z,95636.69
2018-12-01T02:43:35.805Z,95639.92
2018-12-01T02:46:22.216Z,95634.27
2018-12-01T02:48:51.399Z,95633.02
2018-12-01T02:51:20.615Z,95635.52
2018-12-01T02:53:49.803Z,95633.06
2018-12-01T02:56:18.976Z,95638.75
2018-12-01T02:58:48.188Z,95636.53
2018-12-01T03:01:17.351Z,95635.52
2018-12-01T03:03:46.496Z,95636.99
2018-12-01T03:06:15.661Z,95643.31
2018-12-01T03:08:44.811Z,95638.59
2018-12-01T03:11:13.963Z,95644.80
2018-12-01T03:13:43.127Z,95639.69
2018-12-01T03:16:12.267Z,95648.31
2018-12-01T03:18:41.479Z,95645.00
2018-12-01T03:21:10.655Z,95649.05
2018-12-01T03:23:39.868Z,95644.56
2018-12-01T03:26:09.065Z,95651.19
2018-12-01T03:28:38.258Z,95654.00
2018-12-01T03:31:07.468Z,95653.53
2018-12-01T03:33:36.609Z,95656.11
2018-12-01T03:36:06.159Z,95658.13
2018-12-01T03:38:35.368Z,95664.76
2018-12-01T03:41:04.551Z,95667.99
2018-12-01T03:43:33.750Z,95666.36
2018-12-01T03:46:02.903Z,95665.49
2018-12-01T03:48:32.127Z,95671.82
2018-12-01T03:51:01.297Z,95669.02
2018-12-01T03:53:30.455Z,95670.34
2018-12-01T03:55:59.627Z,95677.13
2018-12-01T03:58:28.804Z,95677.41
2018-12-01T04:00:58.053Z,95675.88
2018-12-01T04:03:27.225Z,95673.96
2018-12-01T04:05:56.445Z,95673.30
2018-12-01T04:08:25.609Z,95678.37
2018-12-01T04:10:54.808Z,95680.05
2018-12-01T04:13:24.056Z,95679.41
2018-12-01T04:15:53.216Z,95679.41
2018-12-01T04:18:22.415Z,95675.87
2018-12-01T04:20:51.601Z,95678.28
2018-12-01T04:23:20.796Z,95689.20
2018-12-01T04:25:49.963Z,95690.67
2018-12-01T04:28:19.130Z,95699.95
2018-12-01T04:30:48.304Z,95700.61
2018-12-01T04:33:17.458Z,95701.12
2018-12-01T04:35:46.620Z,95706.26
2018-12-01T04:38:15.774Z,95707.75
2018-12-01T04:40:45.024Z,95702.59
2018-12-01T04:43:14.178Z,95709.36
2018-12-01T04:45:43.304Z,95706.26
2018-12-01T04:48:12.478Z,95713.50
2018-12-01T04:50:41.692Z,95713.28
2018-12-01T04:53:10.876Z,95715.92
2018-12-01T04:55:40.098Z,95717.84
2018-12-01T04:58:09.255Z,95721.67
2018-12-01T05:00:38.530Z,95715.53
2018-12-01T05:03:07.687Z,95716.35
2018-12-01T05:05:36.864Z,95720.85
2018-12-01T05:08:06.295Z,95717.48
2018-12-01T05:10:35.499Z,95717.48
2018-12-01T05:13:04.697Z,95721.91
2018-12-01T05:15:33.918Z,95721.45
2018-12-01T05:18:03.935Z,95715.26
2018-12-01T05:20:33.095Z,95718.81
2018-12-01T05:23:02.297Z,95721.15
2018-12-01T05:25:31.493Z,95720.44
2018-12-01T05:28:00.635Z,95716.30
2018-12-01T05:30:29.792Z,95720.21
2018-12-01T05:32:58.969Z,95715.42
2018-12-01T05:35:28.123Z,95716.74
2018-12-01T05:37:57.288Z,95717.80
2018-12-01T05:40:26.459Z,95726.68
2018-12-01T05:42:55.616Z,95724.42
2018-12-01T05:45:24.761Z,95722.95
2018-12-01T05:47:54.584Z,95725.01
2018-12-01T05:50:26.299Z,95724.70
2018-12-01T05:52:56.984Z,95733.55
2018-12-01T05:58:58.883Z,95728.61
2018-12-01T06:01:28.007Z,95730.52
2018-12-01T06:03:57.155Z,95732.08
2018-12-01T06:06:26.295Z,95737.89
2018-12-01T06:08:55.451Z,95735.89
2018-12-01T06:11:24.736Z,95735.23
2018-12-01T06:13:53.879Z,95740.31
2018-12-01T06:16:23.009Z,95738.84
2018-12-01T06:18:52.219Z,95735.98
2018-12-01T06:21:21.347Z,95738.92
2018-12-01T06:23:50.481Z,95741.95
2018-12-01T06:26:19.627Z,95749.38
2018-12-01T06:28:48.779Z,95744.81
2018-12-01T06:31:17.927Z,95744.46
2018-12-01T06:33:47.095Z,95749.77
2018-12-01T06:36:16.275Z,95749.31
2018-12-01T06:38:45.424Z,95750.85
2018-12-01T06:41:14.630Z,95748.05
2018-12-01T06:43:43.917Z,95754.99
2018-12-01T06:46:13.055Z,95751.09
2018-12-01T06:48:42.211Z,95762.29
2018-12-01T06:51:11.350Z,95764.41
2018-12-01T06:53:40.520Z,95769.35
2018-12-01T06:56:09.788Z,95772.59
2018-12-01T06:58:38.998Z,95777.08
2018-12-01T07:01:08.154Z,95776.30
2018-12-01T07:03:37.389Z,95786.45
2018-12-01T07:06:06.583Z,95786.16
2018-12-01T07:08:35.750Z,95788.82
2018-12-01T07:11:04.932Z,95786.45
2018-12-01T07:13:34.093Z,95792.06
2018-12-01T07:16:03.265Z,95799.70
2018-12-01T07:18:49.763Z,95797.56
2018-12-01T07:21:18.969Z,95802.67
2018-12-01T07:23:48.171Z,95793.14
2018-12-01T07:26:17.319Z,95801.55
2018-12-01T07:28:46.491Z,95801.63
2018-12-01T07:31:15.693Z,95798.23
2018-12-01T07:33:44.834Z,95794.92
2018-12-01T07:36:13.975Z,95805.60
2018-12-01T07:38:43.202Z,95797.95
2018-12-01T07:41:12.466Z,95801.34
2018-12-01T07:43:41.632Z,95802.95
2018-12-01T07:46:10.811Z,95802.15
2018-12-01T07:48:40.147Z,95804.88
2018-12-01T07:51:09.335Z,95806.72
2018-12-01T07:53:38.485Z,95809.69
2018-12-01T07:56:07.635Z,95817.42
2018-12-01T07:58:36.818Z,95818.09
2018-12-01T08:01:06.171Z,95812.55
2018-12-01T08:03:35.331Z,95815.05
2018-12-01T08:06:04.541Z,95815.44
2018-12-01T08:08:33.685Z,95820.95
2018-12-01T08:11:02.868Z,95818.02
2018-12-01T08:13:32.020Z,95820.88
2018-12-01T08:16:01.173Z,95817.36
2018-12-01T08:18:30.323Z,95820.52
2018-12-01T08:20:59.532Z,95821.11
2018-12-01T08:23:28.692Z,95822.13
2018-12-01T08:25:57.859Z,95826.11
2018-12-01T08:28:27.087Z,95824.63
2018-12-01T08:30:56.386Z,95820.32
2018-12-01T08:33:25.722Z,95821.19
2018-12-01T08:35:54.891Z,95823.84
2018-12-01T08:38:24.085Z,95825.47
2018-12-01T08:40:53.312Z,95829.29
2018-12-01T08:43:22.491Z,95835.19
2018-12-01T08:45:58.551Z,95840.78
2018-12-01T08:48:27.738Z,95845.51
2018-12-01T08:50:58.229Z,95835.51
2018-12-01T08:53:27.411Z,95839.78
2018-12-01T08:55:56.647Z,95840.52
2018-12-01T08:58:25.811Z,95838.02
2018-12-01T09:00:54.980Z,95837.13
2018-12-01T09:03:24.591Z,95840.09
2018-12-01T09:05:54.460Z,95842.16
2018-12-01T09:08:23.662Z,95843.34
2018-12-01T09:10:52.917Z,95842.16
2018-12-01T09:13:23.075Z,95847.23
2018-12-01T09:15:52.267Z,95843.17
2018-12-01T09:18:21.472Z,95855.28
2018-12-01T09:20:50.700Z,95848.47
2018-12-01T09:23:19.898Z,95843.67
2018-12-01T09:25:49.067Z,95844.08
2018-12-01T09:28:18.263Z,95846.04
2018-12-01T09:30:47.519Z,95844.97
2018-12-01T09:33:16.702Z,95847.11
2018-12-01T09:35:45.916Z,95845.03
2018-12-01T09:38:15.159Z,95834.88
2018-12-01T09:40:44.340Z,95833.72
2018-12-01T09:43:13.495Z,95833.27
2018-12-01T09:45:42.650Z,95834.67
2018-12-01T09:48:11.791Z,95829.83
2018-12-01T09:50:40.944Z,95829.42
2018-12-01T09:53:10.122Z,95818.04
2018-12-01T09:55:39.280Z,95817.66
2018-12-01T09:58:08.470Z,95810.78
2018-12-01T10:00:37.735Z,95804.13
2018-12-01T10:03:08.832Z,95803.55
2018-12-01T10:05:38.056Z,95800.70
2018-12-01T10:08:07.873Z,95800.72
2018-12-01T10:10:37.336Z,95794.05
2018-12-01T10:13:06.493Z,95792.91
2018-12-01T10:15:37.140Z,95786.64
2018-12-01T10:18:08.687Z,95786.98
2018-12-01T10:20:38.755Z,95784.27
2018-12-01T10:23:10.874Z,95776.64
2018-12-01T10:25:40.230Z,95771.55
2018-12-01T10:28:11.167Z,95766.55
2018-12-01T10:30:40.344Z,95766.69
2018-12-01T10:33:09.528Z,95761.34
2018-12-01T10:35:38.680Z,95761.10
2018-12-01T10:38:16.882Z,95759.59
2018-12-01T10:40:46.127Z,95761.35
2018-12-01T10:43:15.306Z,95751.92
2018-12-01T10:45:44.536Z,95751.78
2018-12-01T10:50:46.399Z,95742.77
2018-12-01T10:53:15.547Z,95740.30
2018-12-01T10:55:44.736Z,95740.11
2018-12-01T10:58:18.114Z,95731.25
2018-12-01T11:00:54.237Z,95730.88
2018-12-01T11:03:31.060Z,95722.50
2018-12-01T11:06:02.164Z,95717.61
2018-12-01T11:08:31.339Z,95715.32
2018-12-01T11:11:00.605Z,95713.02
2018-12-01T11:13:29.889Z,95709.59
2018-12-01T11:15:59.100Z,95705.09
2018-12-01T11:18:28.246Z,95703.63
2018-12-01T11:20:57.399Z,95707.47
2018-12-01T11:23:26.553Z,95706.41
2018-12-01T11:25:55.986Z,95700.25
2018-12-01T11:28:25.140Z,95695.09
2018-12-01T11:30:54.328Z,95691.48
2018-12-01T11:33:23.859Z,95684.33
2018-12-01T11:35:53.069Z,95690.16
2018-12-01T11:38:22.283Z,95697.70
2018-12-01T11:40:51.444Z,95693.38
2018-12-01T11:43:20.633Z,95689.09
2018-12-01T11:45:49.875Z,95688.42
2018-12-01T11:48:19.049Z,95689.81
2018-12-01T11:50:48.345Z,95694.00
2018-12-01T11:53:17.479Z,95689.80
2018-12-01T11:55:46.680Z,95686.16
2018-12-01T11:58:15.859Z,95690.92
2018-12-01T12:00:45.050Z,95696.89
2018-12-01T12:03:14.277Z,95693.00
2018-12-01T12:05:43.516Z,95695.88
2018-12-01T12:08:27.737Z,95692.00
2018-12-01T12:10:57.152Z,95691.42
2018-12-01T12:13:27.621Z,95697.48
2018-12-01T12:15:57.403Z,95698.52
2018-12-01T12:18:27.226Z,95695.70
2018-12-01T12:20:56.597Z,95696.27
2018-12-01T12:23:25.902Z,95691.70
2018-12-01T12:25:55.171Z,95687.25
2018-12-01T12:28:24.500Z,95689.34
2018-12-01T12:30:53.648Z,95693.09
2018-12-01T12:33:22.865Z,95692.78
2018-12-01T12:35:52.057Z,95699.33
2018-12-01T12:38:21.347Z,95703.18
2018-12-01T12:40:50.547Z,95707.84
2018-12-01T12:43:19.754Z,95707.47
2018-12-01T12:45:48.913Z,95702.64
2018-12-01T12:48:18.135Z,95706.09
2018-12-01T12:50:52.929Z,95705.89
2018-12-01T12:53:16.515Z,95710.61
2018-12-01T12:55:45.718Z,95706.44
2018-12-01T12:58:14.898Z,95702.53
2018-12-01T13:00:44.121Z,95704.33
2018-12-01T13:03:13.635Z,95704.63
2018-12-01T13:05:45.384Z,95705.64
2018-12-01T13:08:17.581Z,95710.19
2018-12-01T13:10:46.774Z,95704.68
2018-12-01T13:13:16.026Z,95697.88
2018-12-01T13:15:45.221Z,95703.77
2018-12-01T13:18:15.410Z,95697.11
2018-12-01T13:20:48.156Z,95694.91
2018-12-01T13:23:17.317Z,95689.76
2018-12-01T13:25:46.523Z,95693.19
2018-12-01T13:28:21.110Z,95694.09
2018-12-01T13:30:54.155Z,95697.26
2018-12-01T13:33:24.077Z,95696.56
2018-12-01T13:35:53.459Z,95695.11
2018-12-01T13:38:22.810Z,95689.68
2018-12-01T13:40:51.967Z,95685.64
2018-12-01T13:43:21.142Z,95695.15
2018-12-01T13:45:50.295Z,95694.00
2018-12-01T13:48:19.540Z,95692.47
2018-12-01T13:50:48.711Z,95685.84
2018-12-01T13:53:17.864Z,95684.94
2018-12-01T13:55:47.010Z,95679.86
2018-12-01T13:58:16.274Z,95676.58
2018-12-01T14:00:45.502Z,95677.80
2018-12-01T14:03:14.600Z,95688.30
2018-12-01T14:05:43.759Z,95680.88
2018-12-01T14:08:12.905Z,95682.97
2018-12-01T14:10:44.716Z,95701.19
2018-12-01T14:13:14.868Z,95705.42
2018-12-01T14:15:44.047Z,95700.73
2018-12-01T14:18:14.256Z,95700.00
2018-12-01T14:20:43.462Z,95711.98
2018-12-01T14:23:12.679Z,95704.90
2018-12-01T14:25:41.929Z,95707.95
2018-12-01T14:28:12.659Z,95711.68
2018-12-01T14:30:41.838Z,95702.05
2018-12-01T14:33:12.597Z,95709.02
2018-12-01T14:35:41.765Z,95704.34
2018-12-01T14:38:18.732Z,95706.14
2018-12-01T14:40:50.264Z,95701.30
2018-12-01T14:43:19.462Z,95699.86
2018-12-01T14:45:50.155Z,95690.08
2018-12-01T14:48:19.364Z,95678.51
2018-12-01T14:50:48.986Z,95678.48
2018-12-01T14:53:18.842Z,95672.59
2018-12-01T14:55:48.073Z,95676.85
2018-12-01T14:58:17.254Z,95674.65
2018-12-01T15:00:46.400Z,95679.41
2018-12-01T15:03:15.574Z,95680.17
2018-12-01T15:05:44.723Z,95677.42
2018-12-01T15:08:13.933Z,95677.13
2018-12-01T15:10:43.076Z,95675.80
2018-12-01T15:13:12.277Z,95674.66
2018-12-01T15:15:41.475Z,95674.33
2018-12-01T15:18:10.616Z,95672.07
2018-12-01T15:20:39.823Z,95665.60
2018-12-01T15:23:09.089Z,95668.62
2018-12-01T15:25:38.227Z,95668.08
2018-12-01T15:28:07.533Z,95668.12
2018-12-01T15:30:36.711Z,95672.81
2018-12-01T15:33:13.911Z,95676.80
2018-12-01T15:35:46.336Z,95678.39
2018-12-01T15:38:15.941Z,95671.80
2018-12-01T15:40:50.229Z,95667.91
2018-12-01T15:43:19.395Z,95661.70
2018-12-01T15:45:48.594Z,95662.73
2018-12-01T15:48:17.843Z,95650.64
2018-12-01T15:50:47.260Z,95660.13
2018-12-01T15:53:16.708Z,95655.27
2018-12-01T15:55:45.884Z,95648.86
2018-12-01T15:58:15.087Z,95650.37
2018-12-01T16:00:44.810Z,95654.56
2018-12-01T16:03:14.003Z,95656.65
2018-12-01T16:05:43.224Z,95663.47
2018-12-01T16:08:12.907Z,95657.00
2018-12-01T16:10:42.126Z,95664.13
2018-12-01T16:13:18.987Z,95657.05
2018-12-01T16:15:56.963Z,95660.02
2018-12-01T16:18:26.224Z,95666.03
2018-12-01T16:20:55.484Z,95660.98
2018-12-01T16:23:24.677Z,95654.52
2018-12-01T16:25:53.895Z,95659.33
2018-12-01T16:28:23.075Z,95659.88
2018-12-01T16:30:52.365Z,95658.22
2018-12-01T16:33:22.288Z,95660.47
2018-12-01T16:35:52.279Z,95658.05
2018-12-01T16:38:27.780Z,95651.41
2018-12-01T16:41:09.253Z,95656.25
2018-12-01T16:43:38.402Z,95650.87
2018-12-01T16:46:07.600Z,95648.63
2018-12-01T16:48:36.769Z,95639.43
2018-12-01T16:51:06.043Z,95644.50
2018-12-01T16:53:35.207Z,95642.55
2018-12-01T16:56:04.431Z,95650.94
2018-12-01T16:58:33.591Z,95645.15
2018-12-01T17:01:02.774Z,95646.34
2018-12-01T17:03:32.125Z,95644.54
2018-12-01T17:06:07.057Z,95644.03
2018-12-01T17:08:36.203Z,95645.08
2018-12-01T17:11:06.830Z,95651.45
2018-12-01T17:13:36.195Z,95649.75
2018-12-01T17:16:06.020Z,95647.33
2018-12-01T17:18:35.502Z,95644.30
2018-12-01T17:21:05.015Z,95640.11
2018-12-01T17:23:34.260Z,95633.41
2018-12-01T17:26:03.419Z,95630.85
2018-12-01T17:28:32.720Z,95622.03
2018-12-01T17:31:01.927Z,95621.05
2018-12-01T17:33:31.304Z,95617.67
2018-12-01T17:36:00.484Z,95622.88
2018-12-01T17:38:29.720Z,95621.86
2018-12-01T17:41:06.803Z,95624.79
2018-12-01T17:43:59.508Z,95619.81
2018-12-01T17:46:28.787Z,95616.45
2018-12-01T17:48:58.060Z,95617.67
2018-12-01T17:51:27.348Z,95621.17
2018-12-01T17:54:00.547Z,95617.56
2018-12-01T17:56:29.925Z,95616.14
2018-12-01T17:58:59.159Z,95617.36
2018-12-01T18:01:28.543Z,95615.24
2018-12-01T18:03:58.057Z,95617.45
2018-12-01T18:06:27.300Z,95620.13
2018-12-01T18:08:56.561Z,95621.55
2018-12-01T18:11:29.511Z,95615.59
2018-12-01T18:13:55.048Z,95618.80
2018-12-01T18:16:24.364Z,95618.03
2018-12-01T18:18:53.752Z,95616.31
2018-12-01T18:21:23.039Z,95606.47
2018-12-01T18:23:52.263Z,95612.25
2018-12-01T18:26:21.481Z,95609.22
2018-12-01T18:28:52.315Z,95608.79
2018-12-01T18:31:26.153Z,95606.86
2018-12-01T18:34:00.129Z,95601.57
2018-12-01T18:36:29.536Z,95607.78
2018-12-01T18:38:59.147Z,95603.14
2018-12-01T18:41:29.530Z,95608.88
2018-12-01T18:43:58.688Z,95607.86
2018-12-01T18:46:27.975Z,95609.66
2018-12-01T18:48:57.201Z,95605.69
2018-12-01T18:51:26.380Z,95596.75
2018-12-01T18:53:55.639Z,95601.55
2018-12-01T18:56:24.792Z,95597.92
2018-12-01T18:58:53.924Z,95598.66
2018-12-01T19:01:23.157Z,95594.77
2018-12-01T19:03:52.535Z,95599.92
2018-12-01T19:06:23.004Z,95595.20
2018-12-01T19:11:34.420Z,95593.17
2018-12-01T19:14:03.619Z,95597.07
2018-12-01T19:16:32.847Z,95596.05
2018-12-01T19:19:02.044Z,95594.22
2018-12-01T19:21:31.412Z,95597.66
2018-12-01T19:24:00.705Z,95592.52
2018-12-01T19:26:30.025Z,95591.69
2018-12-01T19:28:59.212Z,95583.97
2018-12-01T19:31:29.555Z,95584.56
2018-12-01T19:33:58.755Z,95589.08
2018-12-01T19:36:27.939Z,95585.52
2018-12-01T19:38:57.139Z,95588.02
2018-12-01T19:41:26.396Z,95587.16
2018-12-01T19:43:55.576Z,95579.63
2018-12-01T19:46:24.775Z,95574.99
2018-12-01T19:48:53.957Z,95576.34
2018-12-01T19:51:23.203Z,95579.66
2018-12-01T19:53:52.381Z,95572.87
2018-12-01T19:56:21.643Z,95573.15
2018-12-01T19:58:50.852Z,95572.72
2018-12-01T20:01:20.997Z,95571.83
2018-12-01T20:03:49.337Z,95569.44
2018-12-01T20:06:18.553Z,95563.87
2018-12-01T20:08:47.755Z,95553.86
2018-12-01T20:11:16.939Z,95561.95
2018-12-01T20:13:47.095Z,95558.72
2018-12-01T20:16:33.906Z,95553.84
2018-12-01T20:19:03.392Z,95546.66
2018-12-01T20:21:37.488Z,95547.23
2018-12-01T20:24:08.403Z,95547.53
2018-12-01T20:26:39.099Z,95547.08
2018-12-01T20:29:08.369Z,95540.02
2018-12-01T20:31:37.522Z,95533.04
2018-12-01T20:34:08.560Z,95534.05
2018-12-01T20:36:55.775Z,95533.67
2018-12-01T20:39:29.660Z,95526.24
2018-12-01T20:42:10.387Z,95520.50
2018-12-01T20:44:39.573Z,95526.31
2018-12-01T20:47:08.791Z,95515.45
2018-12-01T20:49:38.015Z,95523.34
2018-12-01T20:52:07.483Z,95521.36
2018-12-01T20:54:41.724Z,95522.91
2018-12-01T20:57:27.728Z,95523.92
2018-12-01T20:59:57.230Z,95525.90
2018-12-01T21:02:26.385Z,95517.37
2018-12-01T21:04:58.794Z,95522.07
2018-12-01T21:07:28.056Z,95523.70
2018-12-01T21:09:57.356Z,95514.95
2018-12-01T21:12:26.543Z,95514.81
2018-12-01T21:14:55.821Z,95517.63
2018-12-01T21:17:25.113Z,95514.02
2018-12-01T21:19:54.356Z,95512.13
2018-12-01T21:22:23.734Z,95510.30
2018-12-01T21:24:54.064Z,95514.23
2018-12-01T21:27:23.308Z,95511.13
2018-12-01T21:29:56.759Z,95499.33
2018-12-01T21:32:25.983Z,95503.20
2018-12-01T21:34:55.253Z,95509.53
2018-12-01T21:37:24.558Z,95505.56
2018-12-01T21:39:53.743Z,95509.59
2018-12-01T21:42:22.951Z,95512.63
2018-12-01T21:44:52.154Z,95509.81
2018-12-01T21:47:21.343Z,95509.70
2018-12-01T21:49:50.559Z,95510.48
2018-12-01T21:52:19.772Z,95508.80
2018-12-01T21:54:49.018Z,95502.50
2018-12-01T21:57:18.371Z,95493.52
2018-12-01T21:59:47.584Z,95494.69
2018-12-01T22:02:16.772Z,95488.38
2018-12-01T22:04:47.067Z,95488.05
2018-12-01T22:07:16.353Z,95493.43
2018-12-01T22:09:45.602Z,95477.36
2018-12-01T22:12:14.775Z,95471.91
2018-12-01T22:14:43.958Z,95487.78
2018-12-01T22:17:13.152Z,95481.03
2018-12-01T22:19:43.367Z,95477.88
2018-12-01T22:22:12.555Z,95475.23
2018-12-01T22:24:41.755Z,95475.70
2018-12-01T22:27:10.948Z,95468.94
2018-12-01T22:29:40.101Z,95460.14
2018-12-01T22:32:09.315Z,95468.37
2018-12-01T22:34:38.553Z,95470.85
2018-12-01T22:37:07.780Z,95470.78
2018-12-01T22:39:36.980Z,95461.30
2018-12-01T22:42:06.183Z,95451.53
2018-12-01T22:44:35.451Z,95450.28
2018-12-01T22:47:04.757Z,95448.95
2018-12-01T22:49:33.937Z,95450.56
2018-12-01T22:52:03.249Z,95446.91
2018-12-01T22:54:32.418Z,95447.25
2018-12-01T22:57:01.616Z,95449.95
2018-12-01T22:59:30.779Z,95448.64
2018-12-01T23:01:59.976Z,95443.95
2018-12-01T23:04:29.161Z,95433.16
2018-12-01T23:06:58.315Z,95431.33
2018-12-01T23:09:27.512Z,95424.33
2018-12-01T23:11:56.780Z,95425.00
2018-12-01T23:14:25.887Z,95425.23
2018-12-01T23:16:55.135Z,95421.89
2018-12-01T23:19:24.308Z,95428.23
2018-12-01T23:21:53.516Z,95417.14
2018-12-01T23:24:22.663Z,95418.22
2018-12-01T23:26:51.849Z,95408.02
2018-12-01T23:29:21.097Z,95415.28
2018-12-01T23:31:50.318Z,95414.69
2018-12-01T23:34:19.515Z,95412.20
2018-12-01T23:36:48.683Z,95403.16
2018-12-01T23:39:17.867Z,95400.42
2018-12-01T23:41:47.069Z,95397.66
2018-12-01T23:44:28.585Z,95388.98
2018-12-01T23:46:57.749Z,95392.14
2018-12-01T23:49:26.992Z,95384.56
2018-12-01T23:51:56.169Z,95382.42
2018-12-01T23:54:25.359Z,95384.48
2018-12-01T23:56:54.590Z,95383.23
2018-12-01T23:59:23.891Z,95374.72
